sensor_id;sensor_type;location;lat;lon;timestamp;P1;durP1;ratioP1;P2;durP2;ratioP2
66669;SDS011;53568;52.164;4.472;2023-05-10T00:00:39;15.37;;;15.37;;
66669;SDS011;53568;52.164;4.472;2023-05-10T00:03:05;16.43;;;16.43;;
66669;SDS011;53568;52.164;4.472;2023-05-10T00:05:31;16.83;;;16.83;;
66669;SDS011;53568;52.164;4.472;2023-05-10T00:07:57;17.49;;;17.49;;
66669;SDS011;53568;52.164;4.472;2023-05-10T00:10:22;18.59;;;18.59;;
66669;SDS011;53568;52.164;4.472;2023-05-10T00:12:48;19.68;;;19.61;;
66669;SDS011;53568;52.164;4.472;2023-05-10T00:15:13;19.72;;;19.72;;
66669;SDS011;53568;52.164;4.472;2023-05-10T00:17:39;20.63;;;20.62;;
66669;SDS011;53568;52.164;4.472;2023-05-10T00:20:05;23.21;;;22.80;;
66669;SDS011;53568;52.164;4.472;2023-05-10T00:22:31;21.94;;;21.89;;
66669;SDS011;53568;52.164;4.472;2023-05-10T00:24:57;23.36;;;23.27;;
66669;SDS011;53568;52.164;4.472;2023-05-10T00:27:23;23.27;;;23.27;;
66669;SDS011;53568;52.164;4.472;2023-05-10T00:29:48;23.69;;;23.59;;
66669;SDS011;53568;52.164;4.472;2023-05-10T00:32:14;24.27;;;24.04;;
66669;SDS011;53568;52.164;4.472;2023-05-10T00:34:40;24.74;;;24.25;;
66669;SDS011;53568;52.164;4.472;2023-05-10T00:37:06;26.43;;;25.40;;
66669;SDS011;53568;52.164;4.472;2023-05-10T00:39:31;27.46;;;26.57;;
66669;SDS011;53568;52.164;4.472;2023-05-10T00:41:56;27.35;;;26.91;;
66669;SDS011;53568;52.164;4.472;2023-05-10T00:44:22;27.37;;;27.04;;
66669;SDS011;53568;52.164;4.472;2023-05-10T00:46:48;27.81;;;27.74;;
66669;SDS011;53568;52.164;4.472;2023-05-10T00:49:15;29.34;;;28.45;;
66669;SDS011;53568;52.164;4.472;2023-05-10T00:51:41;29.94;;;28.86;;
66669;SDS011;53568;52.164;4.472;2023-05-10T00:54:08;30.56;;;29.19;;
66669;SDS011;53568;52.164;4.472;2023-05-10T00:56:36;30.19;;;28.89;;
66669;SDS011;53568;52.164;4.472;2023-05-10T00:59:02;29.92;;;28.81;;
66669;SDS011;53568;52.164;4.472;2023-05-10T01:01:28;29.48;;;28.46;;
66669;SDS011;53568;52.164;4.472;2023-05-10T01:03:54;27.50;;;26.94;;
66669;SDS011;53568;52.164;4.472;2023-05-10T01:06:20;27.53;;;26.66;;
66669;SDS011;53568;52.164;4.472;2023-05-10T01:08:46;29.55;;;28.32;;
66669;SDS011;53568;52.164;4.472;2023-05-10T01:11:12;29.15;;;27.90;;
66669;SDS011;53568;52.164;4.472;2023-05-10T01:13:39;29.78;;;28.47;;
66669;SDS011;53568;52.164;4.472;2023-05-10T01:16:07;29.77;;;28.57;;
66669;SDS011;53568;52.164;4.472;2023-05-10T01:18:35;28.89;;;27.79;;
66669;SDS011;53568;52.164;4.472;2023-05-10T01:35:07;29.31;;;28.39;;
66669;SDS011;53568;52.164;4.472;2023-05-10T01:37:42;29.79;;;28.75;;
66669;SDS011;53568;52.164;4.472;2023-05-10T01:40:30;28.63;;;27.86;;
66669;SDS011;53568;52.164;4.472;2023-05-10T01:43:17;29.32;;;28.27;;
66669;SDS011;53568;52.164;4.472;2023-05-10T01:46:05;29.47;;;28.53;;
66669;SDS011;53568;52.164;4.472;2023-05-10T01:48:40;30.04;;;28.90;;
66669;SDS011;53568;52.164;4.472;2023-05-10T01:51:17;30.63;;;29.26;;
66669;SDS011;53568;52.164;4.472;2023-05-10T01:53:47;29.79;;;28.94;;
66669;SDS011;53568;52.164;4.472;2023-05-10T01:56:14;30.46;;;29.46;;
66669;SDS011;53568;52.164;4.472;2023-05-10T01:58:41;30.11;;;28.99;;
66669;SDS011;53568;52.164;4.472;2023-05-10T02:01:11;30.73;;;29.71;;
66669;SDS011;53568;52.164;4.472;2023-05-10T02:03:38;29.96;;;29.15;;
66669;SDS011;53568;52.164;4.472;2023-05-10T02:06:07;29.83;;;29.18;;
66669;SDS011;53568;52.164;4.472;2023-05-10T02:08:38;28.57;;;27.81;;
66669;SDS011;53568;52.164;4.472;2023-05-10T02:11:06;29.51;;;28.65;;
66669;SDS011;53568;52.164;4.472;2023-05-10T02:13:34;29.31;;;28.28;;
66669;SDS011;53568;52.164;4.472;2023-05-10T02:16:04;29.93;;;28.88;;
66669;SDS011;53568;52.164;4.472;2023-05-10T02:18:31;30.67;;;29.72;;
66669;SDS011;53568;52.164;4.472;2023-05-10T02:20:59;30.59;;;29.56;;
66669;SDS011;53568;52.164;4.472;2023-05-10T02:23:27;30.70;;;29.76;;
66669;SDS011;53568;52.164;4.472;2023-05-10T02:25:54;30.22;;;29.40;;
66669;SDS011;53568;52.164;4.472;2023-05-10T02:28:23;31.17;;;30.10;;
66669;SDS011;53568;52.164;4.472;2023-05-10T02:30:51;30.55;;;29.52;;
66669;SDS011;53568;52.164;4.472;2023-05-10T02:33:25;31.68;;;30.25;;
66669;SDS011;53568;52.164;4.472;2023-05-10T02:35:53;32.10;;;31.05;;
66669;SDS011;53568;52.164;4.472;2023-05-10T02:38:20;31.00;;;30.24;;
66669;SDS011;53568;52.164;4.472;2023-05-10T02:40:49;30.46;;;29.57;;
66669;SDS011;53568;52.164;4.472;2023-05-10T02:43:16;29.93;;;29.05;;
66669;SDS011;53568;52.164;4.472;2023-05-10T02:45:43;29.05;;;28.39;;
66669;SDS011;53568;52.164;4.472;2023-05-10T02:48:12;29.36;;;28.48;;
66669;SDS011;53568;52.164;4.472;2023-05-10T02:50:38;26.75;;;26.12;;
66669;SDS011;53568;52.164;4.472;2023-05-10T02:53:10;23.43;;;23.18;;
66669;SDS011;53568;52.164;4.472;2023-05-10T02:55:43;20.58;;;20.27;;
66669;SDS011;53568;52.164;4.472;2023-05-10T02:58:14;21.67;;;21.37;;
66669;SDS011;53568;52.164;4.472;2023-05-10T03:00:39;19.52;;;19.30;;
66669;SDS011;53568;52.164;4.472;2023-05-10T03:03:05;20.62;;;20.57;;
66669;SDS011;53568;52.164;4.472;2023-05-10T03:05:31;18.69;;;18.63;;
66669;SDS011;53568;52.164;4.472;2023-05-10T03:07:58;20.15;;;19.71;;
66669;SDS011;53568;52.164;4.472;2023-05-10T03:10:27;19.27;;;18.99;;
66669;SDS011;53568;52.164;4.472;2023-05-10T03:18:45;21.57;;;21.35;;
66669;SDS011;53568;52.164;4.472;2023-05-10T03:21:20;22.72;;;22.18;;
66669;SDS011;53568;52.164;4.472;2023-05-10T03:23:51;22.24;;;21.63;;
66669;SDS011;53568;52.164;4.472;2023-05-10T03:26:25;23.26;;;22.55;;
66669;SDS011;53568;52.164;4.472;2023-05-10T03:28:52;23.99;;;23.14;;
66669;SDS011;53568;52.164;4.472;2023-05-10T03:31:19;22.63;;;22.04;;
66669;SDS011;53568;52.164;4.472;2023-05-10T03:33:46;22.86;;;22.19;;
66669;SDS011;53568;52.164;4.472;2023-05-10T03:36:13;21.69;;;21.02;;
66669;SDS011;53568;52.164;4.472;2023-05-10T03:38:39;21.60;;;21.11;;
66669;SDS011;53568;52.164;4.472;2023-05-10T03:41:04;24.01;;;23.41;;
66669;SDS011;53568;52.164;4.472;2023-05-10T03:43:30;23.12;;;22.65;;
66669;SDS011;53568;52.164;4.472;2023-05-10T03:45:55;22.31;;;21.75;;
66669;SDS011;53568;52.164;4.472;2023-05-10T03:48:21;25.15;;;24.23;;
66669;SDS011;53568;52.164;4.472;2023-05-10T03:50:46;24.17;;;23.12;;
66669;SDS011;53568;52.164;4.472;2023-05-10T03:53:14;22.80;;;22.16;;
66669;SDS011;53568;52.164;4.472;2023-05-10T03:55:40;24.78;;;24.11;;
66669;SDS011;53568;52.164;4.472;2023-05-10T03:58:05;24.80;;;23.57;;
66669;SDS011;53568;52.164;4.472;2023-05-10T04:00:31;23.36;;;22.60;;
66669;SDS011;53568;52.164;4.472;2023-05-10T04:02:57;23.02;;;22.15;;
66669;SDS011;53568;52.164;4.472;2023-05-10T04:05:23;21.91;;;21.23;;
66669;SDS011;53568;52.164;4.472;2023-05-10T04:07:48;23.18;;;22.22;;
66669;SDS011;53568;52.164;4.472;2023-05-10T04:10:15;22.46;;;21.76;;
66669;SDS011;53568;52.164;4.472;2023-05-10T04:12:41;21.98;;;21.42;;
66669;SDS011;53568;52.164;4.472;2023-05-10T04:15:07;20.82;;;20.27;;
66669;SDS011;53568;52.164;4.472;2023-05-10T04:17:33;19.40;;;18.89;;
66669;SDS011;53568;52.164;4.472;2023-05-10T04:19:59;15.13;;;14.69;;
66669;SDS011;53568;52.164;4.472;2023-05-10T04:22:24;14.19;;;13.72;;
66669;SDS011;53568;52.164;4.472;2023-05-10T04:24:50;14.55;;;13.99;;
66669;SDS011;53568;52.164;4.472;2023-05-10T04:27:15;16.16;;;15.69;;
66669;SDS011;53568;52.164;4.472;2023-05-10T04:29:41;17.41;;;16.81;;
66669;SDS011;53568;52.164;4.472;2023-05-10T04:32:06;17.70;;;16.97;;
66669;SDS011;53568;52.164;4.472;2023-05-10T04:34:33;16.95;;;16.39;;
66669;SDS011;53568;52.164;4.472;2023-05-10T04:36:59;17.20;;;16.48;;
66669;SDS011;53568;52.164;4.472;2023-05-10T04:39:24;16.75;;;16.27;;
66669;SDS011;53568;52.164;4.472;2023-05-10T04:41:50;17.40;;;16.62;;
66669;SDS011;53568;52.164;4.472;2023-05-10T04:44:16;17.82;;;16.95;;
66669;SDS011;53568;52.164;4.472;2023-05-10T04:46:41;16.10;;;15.65;;
66669;SDS011;53568;52.164;4.472;2023-05-10T04:49:07;15.71;;;15.29;;
66669;SDS011;53568;52.164;4.472;2023-05-10T04:51:32;16.05;;;15.60;;
66669;SDS011;53568;52.164;4.472;2023-05-10T04:53:58;15.73;;;15.32;;
66669;SDS011;53568;52.164;4.472;2023-05-10T04:56:23;15.01;;;14.62;;
66669;SDS011;53568;52.164;4.472;2023-05-10T04:58:49;15.25;;;14.83;;
66669;SDS011;53568;52.164;4.472;2023-05-10T05:01:15;15.46;;;14.82;;
66669;SDS011;53568;52.164;4.472;2023-05-10T05:03:40;14.75;;;14.20;;
66669;SDS011;53568;52.164;4.472;2023-05-10T05:06:06;14.98;;;14.54;;
66669;SDS011;53568;52.164;4.472;2023-05-10T05:08:32;15.39;;;14.88;;
66669;SDS011;53568;52.164;4.472;2023-05-10T05:10:57;15.00;;;14.50;;
66669;SDS011;53568;52.164;4.472;2023-05-10T05:13:23;14.25;;;13.97;;
66669;SDS011;53568;52.164;4.472;2023-05-10T05:15:48;15.55;;;15.17;;
66669;SDS011;53568;52.164;4.472;2023-05-10T05:18:14;14.85;;;14.41;;
66669;SDS011;53568;52.164;4.472;2023-05-10T05:20:39;15.09;;;14.53;;
66669;SDS011;53568;52.164;4.472;2023-05-10T05:23:05;14.92;;;14.43;;
66669;SDS011;53568;52.164;4.472;2023-05-10T05:25:31;14.76;;;14.27;;
66669;SDS011;53568;52.164;4.472;2023-05-10T05:27:56;14.59;;;14.14;;
66669;SDS011;53568;52.164;4.472;2023-05-10T05:30:22;13.88;;;13.48;;
66669;SDS011;53568;52.164;4.472;2023-05-10T05:32:47;13.52;;;13.31;;
66669;SDS011;53568;52.164;4.472;2023-05-10T05:35:13;11.96;;;11.77;;
66669;SDS011;53568;52.164;4.472;2023-05-10T05:37:38;10.37;;;10.18;;
66669;SDS011;53568;52.164;4.472;2023-05-10T05:40:04;9.63;;;9.44;;
66669;SDS011;53568;52.164;4.472;2023-05-10T05:42:30;9.19;;;8.99;;
66669;SDS011;53568;52.164;4.472;2023-05-10T05:44:56;8.78;;;8.54;;
66669;SDS011;53568;52.164;4.472;2023-05-10T05:47:22;6.97;;;6.78;;
66669;SDS011;53568;52.164;4.472;2023-05-10T05:49:48;6.81;;;6.62;;
66669;SDS011;53568;52.164;4.472;2023-05-10T05:52:13;6.10;;;5.96;;
66669;SDS011;53568;52.164;4.472;2023-05-10T05:54:39;5.83;;;5.72;;
66669;SDS011;53568;52.164;4.472;2023-05-10T05:57:04;5.58;;;5.51;;
66669;SDS011;53568;52.164;4.472;2023-05-10T05:59:30;5.51;;;5.46;;
66669;SDS011;53568;52.164;4.472;2023-05-10T06:01:56;5.23;;;5.23;;
66669;SDS011;53568;52.164;4.472;2023-05-10T06:04:22;5.17;;;5.08;;
66669;SDS011;53568;52.164;4.472;2023-05-10T06:06:47;4.98;;;4.79;;
66669;SDS011;53568;52.164;4.472;2023-05-10T06:09:12;4.79;;;4.76;;
66669;SDS011;53568;52.164;4.472;2023-05-10T06:11:38;4.57;;;4.57;;
66669;SDS011;53568;52.164;4.472;2023-05-10T06:14:05;4.22;;;4.22;;
66669;SDS011;53568;52.164;4.472;2023-05-10T06:16:33;4.06;;;4.05;;
66669;SDS011;53568;52.164;4.472;2023-05-10T06:18:59;3.98;;;3.96;;
66669;SDS011;53568;52.164;4.472;2023-05-10T06:21:24;4.03;;;4.03;;
66669;SDS011;53568;52.164;4.472;2023-05-10T06:23:50;3.66;;;3.66;;
66669;SDS011;53568;52.164;4.472;2023-05-10T06:26:16;3.60;;;3.60;;
66669;SDS011;53568;52.164;4.472;2023-05-10T06:28:42;3.18;;;3.18;;
66669;SDS011;53568;52.164;4.472;2023-05-10T06:31:07;3.46;;;3.46;;
66669;SDS011;53568;52.164;4.472;2023-05-10T06:33:38;3.78;;;3.78;;
66669;SDS011;53568;52.164;4.472;2023-05-10T06:36:03;4.22;;;4.22;;
66669;SDS011;53568;52.164;4.472;2023-05-10T06:38:29;4.79;;;4.79;;
66669;SDS011;53568;52.164;4.472;2023-05-10T06:40:55;5.09;;;5.09;;
66669;SDS011;53568;52.164;4.472;2023-05-10T06:43:20;5.59;;;5.59;;
66669;SDS011;53568;52.164;4.472;2023-05-10T06:45:47;6.19;;;6.08;;
66669;SDS011;53568;52.164;4.472;2023-05-10T06:48:13;5.59;;;5.59;;
66669;SDS011;53568;52.164;4.472;2023-05-10T06:50:38;5.48;;;5.46;;
66669;SDS011;53568;52.164;4.472;2023-05-10T07:03:10;5.39;;;5.39;;
66669;SDS011;53568;52.164;4.472;2023-05-10T07:05:36;5.10;;;5.04;;
66669;SDS011;53568;52.164;4.472;2023-05-10T07:08:02;5.13;;;5.12;;
66669;SDS011;53568;52.164;4.472;2023-05-10T07:10:27;5.61;;;5.55;;
66669;SDS011;53568;52.164;4.472;2023-05-10T07:12:53;6.01;;;5.93;;
66669;SDS011;53568;52.164;4.472;2023-05-10T07:15:19;6.45;;;6.40;;
66669;SDS011;53568;52.164;4.472;2023-05-10T07:17:44;6.30;;;6.26;;
66669;SDS011;53568;52.164;4.472;2023-05-10T07:20:10;7.00;;;6.84;;
66669;SDS011;53568;52.164;4.472;2023-05-10T07:22:36;6.68;;;6.66;;
66669;SDS011;53568;52.164;4.472;2023-05-10T07:25:02;6.77;;;6.76;;
66669;SDS011;53568;52.164;4.472;2023-05-10T07:27:27;6.46;;;6.45;;
66669;SDS011;53568;52.164;4.472;2023-05-10T07:29:53;5.86;;;5.84;;
66669;SDS011;53568;52.164;4.472;2023-05-10T07:32:19;6.02;;;6.02;;
66669;SDS011;53568;52.164;4.472;2023-05-10T07:34:45;5.26;;;5.26;;
66669;SDS011;53568;52.164;4.472;2023-05-10T07:37:11;4.92;;;4.88;;
66669;SDS011;53568;52.164;4.472;2023-05-10T07:39:36;4.22;;;4.20;;
66669;SDS011;53568;52.164;4.472;2023-05-10T07:42:02;4.54;;;4.54;;
66669;SDS011;53568;52.164;4.472;2023-05-10T07:44:28;4.99;;;4.99;;
66669;SDS011;53568;52.164;4.472;2023-05-10T07:46:54;5.19;;;5.19;;
66669;SDS011;53568;52.164;4.472;2023-05-10T07:49:20;4.18;;;4.18;;
66669;SDS011;53568;52.164;4.472;2023-05-10T07:51:46;3.98;;;3.98;;
66669;SDS011;53568;52.164;4.472;2023-05-10T07:54:11;4.04;;;4.04;;
66669;SDS011;53568;52.164;4.472;2023-05-10T07:56:37;3.56;;;3.56;;
66669;SDS011;53568;52.164;4.472;2023-05-10T07:59:04;3.87;;;3.87;;
66669;SDS011;53568;52.164;4.472;2023-05-10T08:01:32;3.09;;;3.09;;
66669;SDS011;53568;52.164;4.472;2023-05-10T08:03:58;2.89;;;2.89;;
66669;SDS011;53568;52.164;4.472;2023-05-10T08:06:25;2.82;;;2.82;;
66669;SDS011;53568;52.164;4.472;2023-05-10T08:08:52;2.83;;;2.83;;
66669;SDS011;53568;52.164;4.472;2023-05-10T08:11:19;2.89;;;2.89;;
66669;SDS011;53568;52.164;4.472;2023-05-10T08:13:46;2.77;;;2.77;;
66669;SDS011;53568;52.164;4.472;2023-05-10T08:16:14;2.23;;;2.23;;
66669;SDS011;53568;52.164;4.472;2023-05-10T08:18:40;2.30;;;2.30;;
66669;SDS011;53568;52.164;4.472;2023-05-10T08:21:06;2.60;;;2.56;;
66669;SDS011;53568;52.164;4.472;2023-05-10T08:23:32;2.65;;;2.65;;
66669;SDS011;53568;52.164;4.472;2023-05-10T08:25:58;2.54;;;2.54;;
66669;SDS011;53568;52.164;4.472;2023-05-10T08:28:24;2.51;;;2.50;;
66669;SDS011;53568;52.164;4.472;2023-05-10T08:30:50;2.57;;;2.52;;
66669;SDS011;53568;52.164;4.472;2023-05-10T08:33:33;2.42;;;2.33;;
66669;SDS011;53568;52.164;4.472;2023-05-10T08:35:59;2.31;;;2.28;;
66669;SDS011;53568;52.164;4.472;2023-05-10T08:38:24;2.63;;;2.63;;
66669;SDS011;53568;52.164;4.472;2023-05-10T08:40:51;2.38;;;2.38;;
66669;SDS011;53568;52.164;4.472;2023-05-10T08:43:21;2.59;;;2.59;;
66669;SDS011;53568;52.164;4.472;2023-05-10T08:45:53;2.29;;;2.29;;
66669;SDS011;53568;52.164;4.472;2023-05-10T08:48:20;2.42;;;2.42;;
66669;SDS011;53568;52.164;4.472;2023-05-10T08:50:49;2.80;;;2.80;;
66669;SDS011;53568;52.164;4.472;2023-05-10T08:53:19;2.84;;;2.84;;
66669;SDS011;53568;52.164;4.472;2023-05-10T08:55:46;3.07;;;3.07;;
66669;SDS011;53568;52.164;4.472;2023-05-10T08:58:12;3.01;;;3.01;;
66669;SDS011;53568;52.164;4.472;2023-05-10T09:00:38;2.69;;;2.69;;
66669;SDS011;53568;52.164;4.472;2023-05-10T09:03:05;2.91;;;2.91;;
66669;SDS011;53568;52.164;4.472;2023-05-10T09:05:31;3.32;;;3.32;;
66669;SDS011;53568;52.164;4.472;2023-05-10T09:07:57;3.09;;;3.09;;
66669;SDS011;53568;52.164;4.472;2023-05-10T09:10:25;3.12;;;3.12;;
66669;SDS011;53568;52.164;4.472;2023-05-10T09:12:53;3.63;;;3.63;;
66669;SDS011;53568;52.164;4.472;2023-05-10T09:15:21;3.13;;;3.13;;
66669;SDS011;53568;52.164;4.472;2023-05-10T09:17:47;3.59;;;3.59;;
66669;SDS011;53568;52.164;4.472;2023-05-10T09:20:14;3.94;;;3.94;;
66669;SDS011;53568;52.164;4.472;2023-05-10T09:22:42;4.16;;;4.14;;
66669;SDS011;53568;52.164;4.472;2023-05-10T09:25:08;5.88;;;5.71;;
66669;SDS011;53568;52.164;4.472;2023-05-10T09:27:36;7.45;;;7.12;;
66669;SDS011;53568;52.164;4.472;2023-05-10T09:30:03;8.38;;;8.21;;
66669;SDS011;53568;52.164;4.472;2023-05-10T09:32:37;9.11;;;8.98;;
66669;SDS011;53568;52.164;4.472;2023-05-10T09:35:07;10.21;;;9.99;;
66669;SDS011;53568;52.164;4.472;2023-05-10T09:37:36;10.20;;;9.91;;
66669;SDS011;53568;52.164;4.472;2023-05-10T09:40:06;10.95;;;10.63;;
66669;SDS011;53568;52.164;4.472;2023-05-10T09:42:50;11.88;;;11.58;;
66669;SDS011;53568;52.164;4.472;2023-05-10T09:45:21;10.55;;;10.35;;
66669;SDS011;53568;52.164;4.472;2023-05-10T09:47:48;10.00;;;9.75;;
66669;SDS011;53568;52.164;4.472;2023-05-10T09:50:13;10.81;;;10.55;;
66669;SDS011;53568;52.164;4.472;2023-05-10T09:52:45;10.79;;;10.45;;
66669;SDS011;53568;52.164;4.472;2023-05-10T09:55:17;9.05;;;8.80;;
66669;SDS011;53568;52.164;4.472;2023-05-10T09:57:45;8.19;;;7.93;;
66669;SDS011;53568;52.164;4.472;2023-05-10T10:00:16;9.16;;;8.94;;
66669;SDS011;53568;52.164;4.472;2023-05-10T10:02:42;10.69;;;10.51;;
66669;SDS011;53568;52.164;4.472;2023-05-10T10:05:11;11.55;;;11.39;;
66669;SDS011;53568;52.164;4.472;2023-05-10T10:07:36;12.25;;;11.97;;
66669;SDS011;53568;52.164;4.472;2023-05-10T10:10:02;12.37;;;12.15;;
66669;SDS011;53568;52.164;4.472;2023-05-10T10:12:30;13.08;;;12.66;;
66669;SDS011;53568;52.164;4.472;2023-05-10T10:14:55;12.88;;;12.43;;
66669;SDS011;53568;52.164;4.472;2023-05-10T10:17:22;13.18;;;12.80;;
66669;SDS011;53568;52.164;4.472;2023-05-10T10:19:52;12.12;;;11.86;;
66669;SDS011;53568;52.164;4.472;2023-05-10T10:22:20;13.52;;;13.13;;
66669;SDS011;53568;52.164;4.472;2023-05-10T10:24:45;12.87;;;12.58;;
66669;SDS011;53568;52.164;4.472;2023-05-10T10:27:16;13.52;;;13.03;;
66669;SDS011;53568;52.164;4.472;2023-05-10T10:30:00;13.55;;;12.76;;
66669;SDS011;53568;52.164;4.472;2023-05-10T10:32:59;12.66;;;12.09;;
66669;SDS011;53568;52.164;4.472;2023-05-10T10:35:42;14.33;;;13.29;;
66669;SDS011;53568;52.164;4.472;2023-05-10T10:38:11;13.69;;;12.96;;
66669;SDS011;53568;52.164;4.472;2023-05-10T10:40:38;13.79;;;13.36;;
66669;SDS011;53568;52.164;4.472;2023-05-10T10:46:11;14.95;;;13.94;;
66669;SDS011;53568;52.164;4.472;2023-05-10T10:48:39;14.88;;;13.81;;
66669;SDS011;53568;52.164;4.472;2023-05-10T10:51:05;15.26;;;14.04;;
66669;SDS011;53568;52.164;4.472;2023-05-10T10:53:31;13.25;;;12.49;;
66669;SDS011;53568;52.164;4.472;2023-05-10T10:56:07;13.15;;;12.49;;
66669;SDS011;53568;52.164;4.472;2023-05-10T10:58:35;12.04;;;11.68;;
66669;SDS011;53568;52.164;4.472;2023-05-10T11:01:15;12.07;;;11.71;;
66669;SDS011;53568;52.164;4.472;2023-05-10T11:06:40;10.12;;;9.79;;
66669;SDS011;53568;52.164;4.472;2023-05-10T11:09:08;10.17;;;9.92;;
66669;SDS011;53568;52.164;4.472;2023-05-10T11:11:35;9.59;;;9.47;;
66669;SDS011;53568;52.164;4.472;2023-05-10T11:14:05;8.04;;;7.99;;
66669;SDS011;53568;52.164;4.472;2023-05-10T11:16:41;7.81;;;7.78;;
66669;SDS011;53568;52.164;4.472;2023-05-10T11:19:09;7.85;;;7.78;;
66669;SDS011;53568;52.164;4.472;2023-05-10T11:21:49;8.02;;;7.94;;
66669;SDS011;53568;52.164;4.472;2023-05-10T11:24:35;7.99;;;7.88;;
66669;SDS011;53568;52.164;4.472;2023-05-10T11:27:01;7.93;;;7.92;;
66669;SDS011;53568;52.164;4.472;2023-05-10T11:29:27;7.76;;;7.76;;
66669;SDS011;53568;52.164;4.472;2023-05-10T11:31:53;7.96;;;7.95;;
66669;SDS011;53568;52.164;4.472;2023-05-10T11:34:27;8.26;;;8.23;;
66669;SDS011;53568;52.164;4.472;2023-05-10T11:36:56;8.42;;;8.32;;
66669;SDS011;53568;52.164;4.472;2023-05-10T11:39:45;8.47;;;8.35;;
66669;SDS011;53568;52.164;4.472;2023-05-10T11:42:12;8.45;;;8.37;;
66669;SDS011;53568;52.164;4.472;2023-05-10T11:44:38;8.08;;;7.99;;
66669;SDS011;53568;52.164;4.472;2023-05-10T11:47:03;8.15;;;8.01;;
66669;SDS011;53568;52.164;4.472;2023-05-10T11:49:30;7.36;;;7.31;;
66669;SDS011;53568;52.164;4.472;2023-05-10T11:52:05;6.28;;;6.24;;
66669;SDS011;53568;52.164;4.472;2023-05-10T11:54:32;5.77;;;5.77;;
66669;SDS011;53568;52.164;4.472;2023-05-10T11:56:59;4.97;;;4.96;;
66669;SDS011;53568;52.164;4.472;2023-05-10T11:59:25;3.95;;;3.94;;
66669;SDS011;53568;52.164;4.472;2023-05-10T12:01:51;3.69;;;3.69;;
66669;SDS011;53568;52.164;4.472;2023-05-10T12:04:16;3.82;;;3.82;;
66669;SDS011;53568;52.164;4.472;2023-05-10T12:06:42;4.74;;;4.74;;
66669;SDS011;53568;52.164;4.472;2023-05-10T12:09:08;5.01;;;5.01;;
66669;SDS011;53568;52.164;4.472;2023-05-10T12:11:36;5.79;;;5.72;;
66669;SDS011;53568;52.164;4.472;2023-05-10T12:14:04;6.96;;;6.93;;
66669;SDS011;53568;52.164;4.472;2023-05-10T12:16:30;7.29;;;7.28;;
66669;SDS011;53568;52.164;4.472;2023-05-10T12:18:57;7.66;;;7.63;;
66669;SDS011;53568;52.164;4.472;2023-05-10T12:21:25;8.53;;;8.49;;
66669;SDS011;53568;52.164;4.472;2023-05-10T12:23:52;8.69;;;8.64;;
66669;SDS011;53568;52.164;4.472;2023-05-10T12:26:22;9.15;;;9.01;;
66669;SDS011;53568;52.164;4.472;2023-05-10T12:28:49;8.41;;;8.32;;
66669;SDS011;53568;52.164;4.472;2023-05-10T12:31:15;8.14;;;8.05;;
66669;SDS011;53568;52.164;4.472;2023-05-10T12:33:41;8.84;;;8.73;;
66669;SDS011;53568;52.164;4.472;2023-05-10T12:36:12;9.95;;;9.80;;
66669;SDS011;53568;52.164;4.472;2023-05-10T12:38:40;10.44;;;10.29;;
66669;SDS011;53568;52.164;4.472;2023-05-10T12:41:14;11.44;;;11.27;;
66669;SDS011;53568;52.164;4.472;2023-05-10T12:43:41;11.86;;;11.68;;
66669;SDS011;53568;52.164;4.472;2023-05-10T12:46:10;11.88;;;11.71;;
66669;SDS011;53568;52.164;4.472;2023-05-10T12:48:38;12.28;;;12.05;;
66669;SDS011;53568;52.164;4.472;2023-05-10T12:51:05;12.12;;;11.92;;
66669;SDS011;53568;52.164;4.472;2023-05-10T12:53:34;12.25;;;11.96;;
66669;SDS011;53568;52.164;4.472;2023-05-10T12:56:00;12.04;;;11.88;;
66669;SDS011;53568;52.164;4.472;2023-05-10T12:58:26;11.97;;;11.72;;
66669;SDS011;53568;52.164;4.472;2023-05-10T13:00:52;12.01;;;11.80;;
66669;SDS011;53568;52.164;4.472;2023-05-10T13:03:17;12.15;;;11.92;;
66669;SDS011;53568;52.164;4.472;2023-05-10T13:05:43;13.02;;;12.69;;
66669;SDS011;53568;52.164;4.472;2023-05-10T13:08:08;13.47;;;13.18;;
66669;SDS011;53568;52.164;4.472;2023-05-10T13:10:34;13.57;;;13.19;;
66669;SDS011;53568;52.164;4.472;2023-05-10T13:13:00;12.55;;;12.12;;
66669;SDS011;53568;52.164;4.472;2023-05-10T13:15:26;13.61;;;13.28;;
66669;SDS011;53568;52.164;4.472;2023-05-10T13:17:52;13.51;;;13.20;;
66669;SDS011;53568;52.164;4.472;2023-05-10T13:20:18;14.31;;;13.91;;
66669;SDS011;53568;52.164;4.472;2023-05-10T13:22:44;14.35;;;13.93;;
66669;SDS011;53568;52.164;4.472;2023-05-10T13:25:10;14.19;;;13.72;;
66669;SDS011;53568;52.164;4.472;2023-05-10T13:27:40;14.15;;;13.80;;
66669;SDS011;53568;52.164;4.472;2023-05-10T13:30:06;13.51;;;13.23;;
66669;SDS011;53568;52.164;4.472;2023-05-10T13:32:32;13.62;;;13.33;;
66669;SDS011;53568;52.164;4.472;2023-05-10T13:34:58;13.15;;;12.87;;
66669;SDS011;53568;52.164;4.472;2023-05-10T13:37:24;12.54;;;12.24;;
66669;SDS011;53568;52.164;4.472;2023-05-10T13:39:49;12.35;;;11.98;;
66669;SDS011;53568;52.164;4.472;2023-05-10T13:42:15;12.27;;;11.93;;
66669;SDS011;53568;52.164;4.472;2023-05-10T13:44:40;12.06;;;11.86;;
66669;SDS011;53568;52.164;4.472;2023-05-10T13:47:06;12.10;;;11.93;;
66669;SDS011;53568;52.164;4.472;2023-05-10T13:49:32;12.78;;;12.52;;
66669;SDS011;53568;52.164;4.472;2023-05-10T13:51:59;12.98;;;12.63;;
66669;SDS011;53568;52.164;4.472;2023-05-10T13:54:25;11.65;;;11.44;;
66669;SDS011;53568;52.164;4.472;2023-05-10T13:56:54;11.20;;;11.00;;
66669;SDS011;53568;52.164;4.472;2023-05-10T13:59:20;11.67;;;11.43;;
66669;SDS011;53568;52.164;4.472;2023-05-10T14:01:45;10.70;;;10.52;;
66669;SDS011;53568;52.164;4.472;2023-05-10T14:04:11;9.62;;;9.44;;
66669;SDS011;53568;52.164;4.472;2023-05-10T14:06:36;10.36;;;10.14;;
66669;SDS011;53568;52.164;4.472;2023-05-10T14:09:02;8.75;;;8.57;;
66669;SDS011;53568;52.164;4.472;2023-05-10T14:11:28;9.84;;;9.60;;
66669;SDS011;53568;52.164;4.472;2023-05-10T14:13:54;10.58;;;10.32;;
66669;SDS011;53568;52.164;4.472;2023-05-10T14:16:19;11.08;;;10.76;;
66669;SDS011;53568;52.164;4.472;2023-05-10T14:18:46;9.74;;;9.53;;
66669;SDS011;53568;52.164;4.472;2023-05-10T14:21:11;8.49;;;8.27;;
66669;SDS011;53568;52.164;4.472;2023-05-10T14:23:37;8.08;;;7.95;;
66669;SDS011;53568;52.164;4.472;2023-05-10T14:26:03;8.18;;;8.10;;
66669;SDS011;53568;52.164;4.472;2023-05-10T14:28:28;8.22;;;8.08;;
66669;SDS011;53568;52.164;4.472;2023-05-10T14:30:54;8.70;;;8.64;;
66669;SDS011;53568;52.164;4.472;2023-05-10T14:33:19;10.23;;;10.09;;
66669;SDS011;53568;52.164;4.472;2023-05-10T14:35:46;9.21;;;9.19;;
66669;SDS011;53568;52.164;4.472;2023-05-10T14:38:11;8.88;;;8.79;;
66669;SDS011;53568;52.164;4.472;2023-05-10T14:40:37;10.95;;;10.70;;
66669;SDS011;53568;52.164;4.472;2023-05-10T14:43:03;11.53;;;11.23;;
66669;SDS011;53568;52.164;4.472;2023-05-10T14:45:28;12.34;;;12.05;;
66669;SDS011;53568;52.164;4.472;2023-05-10T14:47:54;12.74;;;12.49;;
66669;SDS011;53568;52.164;4.472;2023-05-10T14:50:20;12.21;;;11.97;;
66669;SDS011;53568;52.164;4.472;2023-05-10T14:52:46;11.50;;;11.33;;
66669;SDS011;53568;52.164;4.472;2023-05-10T14:55:11;12.34;;;12.08;;
66669;SDS011;53568;52.164;4.472;2023-05-10T14:57:37;13.52;;;13.26;;
66669;SDS011;53568;52.164;4.472;2023-05-10T15:00:02;14.13;;;13.84;;
66669;SDS011;53568;52.164;4.472;2023-05-10T15:02:30;13.47;;;13.25;;
66669;SDS011;53568;52.164;4.472;2023-05-10T15:04:56;12.62;;;12.20;;
66669;SDS011;53568;52.164;4.472;2023-05-10T15:07:22;12.52;;;12.29;;